createdAt,value
2023-05-11T00:00:06.052Z,12.30
2023-05-11T00:02:37.376Z,12.20
2023-05-11T00:05:04.880Z,12.00
2023-05-11T00:07:32.892Z,12.20
2023-05-11T00:10:00.028Z,12.30
2023-05-11T00:12:27.164Z,12.20
2023-05-11T00:14:54.238Z,12.10
2023-05-11T00:17:21.509Z,12.10
2023-05-11T00:19:48.758Z,12.10
2023-05-11T00:22:16.237Z,12.00
2023-05-11T00:24:43.467Z,12.00
2023-05-11T00:27:10.561Z,12.00
2023-05-11T00:29:37.787Z,12.10
2023-05-11T00:32:05.177Z,12.10
2023-05-11T00:34:32.765Z,12.10
2023-05-11T00:36:59.937Z,12.10
2023-05-11T00:39:27.065Z,12.10
2023-05-11T00:41:54.615Z,12.10
2023-05-11T00:44:21.952Z,12.00
2023-05-11T00:46:49.766Z,11.90
2023-05-11T00:49:17.562Z,12.00
2023-05-11T00:51:44.781Z,11.90
2023-05-11T00:54:15.310Z,11.90
2023-05-11T00:56:43.069Z,11.90
2023-05-11T00:59:10.119Z,12.00
2023-05-11T01:01:40.747Z,12.00
2023-05-11T01:04:08.281Z,12.00
2023-05-11T01:06:42.599Z,11.90
2023-05-11T01:09:21.332Z,11.90
2023-05-11T01:11:57.101Z,11.90
2023-05-11T01:14:41.571Z,12.00
2023-05-11T01:17:53.060Z,11.90
2023-05-11T01:20:25.261Z,11.80
2023-05-11T01:23:07.850Z,11.80
2023-05-11T01:26:10.992Z,11.80
2023-05-11T01:29:02.224Z,11.80
2023-05-11T01:31:32.591Z,11.80
2023-05-11T01:34:04.014Z,11.70
2023-05-11T01:36:39.160Z,11.60
2023-05-11T01:39:10.675Z,11.60
2023-05-11T01:41:40.224Z,11.60
2023-05-11T01:44:10.471Z,11.50
2023-05-11T01:46:39.032Z,11.50
2023-05-11T01:49:09.684Z,11.60
2023-05-11T01:51:38.015Z,11.60
2023-05-11T01:54:09.605Z,11.50
2023-05-11T01:56:41.618Z,11.50
2023-05-11T01:59:10.592Z,11.50
2023-05-11T02:01:39.962Z,11.60
2023-05-11T02:04:09.568Z,11.60
2023-05-11T02:06:39.568Z,11.60
2023-05-11T02:09:09.494Z,11.70
2023-05-11T02:11:38.385Z,11.70
2023-05-11T02:14:06.970Z,11.60
2023-05-11T02:16:35.489Z,11.60
2023-05-11T02:19:03.591Z,11.50
2023-05-11T02:21:53.376Z,11.60
2023-05-11T02:24:21.621Z,11.60
2023-05-11T02:26:48.800Z,11.60
2023-05-11T02:29:16.333Z,11.60
2023-05-11T02:31:46.756Z,11.60
2023-05-11T02:34:26.941Z,11.60
2023-05-11T02:36:58.781Z,11.60
2023-05-11T02:39:32.378Z,11.70
2023-05-11T02:42:02.207Z,11.80
2023-05-11T02:44:35.263Z,11.80
2023-05-11T02:47:04.685Z,11.80
2023-05-11T02:49:32.995Z,11.70
2023-05-11T02:52:02.112Z,11.80
2023-05-11T02:54:31.140Z,11.80
2023-05-11T02:56:58.512Z,11.80
2023-05-11T02:59:25.949Z,11.80
2023-05-11T03:01:54.327Z,11.80
2023-05-11T03:04:21.938Z,11.90
2023-05-11T03:06:49.163Z,12.00
2023-05-11T03:09:16.364Z,12.10
2023-05-11T03:11:44.405Z,12.20
2023-05-11T03:14:11.884Z,12.30
2023-05-11T03:16:40.084Z,12.40
2023-05-11T03:19:08.571Z,12.30
2023-05-11T03:21:38.065Z,12.20
2023-05-11T03:24:07.689Z,12.20
2023-05-11T03:26:36.523Z,12.40
2023-05-11T03:29:04.270Z,12.40
2023-05-11T03:31:31.564Z,12.50
2023-05-11T03:33:59.128Z,12.60
2023-05-11T03:36:27.264Z,12.70
2023-05-11T03:38:59.388Z,12.70
2023-05-11T03:41:29.230Z,12.70
2023-05-11T03:43:59.357Z,12.70
2023-05-11T03:46:28.501Z,12.80
2023-05-11T03:48:56.031Z,12.80
2023-05-11T03:51:23.697Z,12.80
2023-05-11T03:53:51.426Z,13.00
2023-05-11T03:56:18.629Z,13.00
2023-05-11T03:59:04.648Z,13.10
2023-05-11T04:01:32.945Z,13.10
2023-05-11T04:04:00.260Z,13.20
2023-05-11T04:06:27.539Z,13.20
2023-05-11T04:08:54.855Z,13.20
2023-05-11T04:11:22.269Z,13.10
2023-05-11T04:13:49.468Z,13.20
2023-05-11T04:16:16.752Z,13.30
2023-05-11T04:18:43.944Z,13.30
2023-05-11T04:21:11.071Z,13.50
2023-05-11T04:23:38.389Z,13.50
2023-05-11T04:26:05.461Z,13.50
2023-05-11T04:28:32.547Z,13.60
2023-05-11T04:30:59.756Z,13.50
2023-05-11T04:33:26.998Z,13.50
2023-05-11T04:35:55.185Z,13.30
2023-05-11T04:38:22.972Z,13.70
2023-05-11T04:40:50.817Z,13.80
2023-05-11T04:43:18.760Z,13.90
2023-05-11T04:45:51.845Z,13.90
2023-05-11T04:48:20.736Z,13.90
2023-05-11T04:50:48.541Z,13.90
2023-05-11T04:53:15.682Z,13.70
2023-05-11T04:55:42.832Z,13.50
2023-05-11T04:58:11.244Z,13.50
2023-05-11T05:00:38.500Z,13.70
2023-05-11T05:03:05.811Z,14.00
2023-05-11T05:05:33.435Z,14.20
2023-05-11T05:08:00.679Z,14.40
2023-05-11T05:10:27.828Z,14.30
2023-05-11T05:13:00.721Z,14.20
2023-05-11T05:15:28.074Z,14.10
2023-05-11T05:17:55.310Z,14.00
2023-05-11T05:20:22.470Z,13.80
2023-05-11T05:22:49.570Z,13.70
2023-05-11T05:25:17.048Z,13.80
2023-05-11T05:27:44.713Z,14.00
2023-05-11T05:30:12.022Z,14.30
2023-05-11T05:32:39.142Z,14.30
2023-05-11T05:35:06.564Z,14.10
2023-05-11T05:37:33.652Z,14.20
2023-05-11T05:40:00.889Z,14.40
2023-05-11T05:42:28.168Z,14.60
2023-05-11T05:44:55.243Z,15.10
2023-05-11T05:47:22.405Z,15.30
2023-05-11T05:49:49.607Z,15.50
2023-05-11T05:52:16.765Z,15.60
2023-05-11T05:54:43.818Z,15.50
2023-05-11T05:57:11.914Z,15.80
2023-05-11T05:59:40.260Z,16.30
2023-05-11T06:02:08.500Z,17.40
2023-05-11T06:04:35.718Z,17.60
2023-05-11T06:07:02.850Z,17.00
2023-05-11T06:09:29.924Z,16.30
2023-05-11T06:11:57.480Z,16.30
2023-05-11T06:14:43.251Z,16.20
2023-05-11T06:17:29.023Z,16.00
2023-05-11T06:19:56.556Z,16.10
2023-05-11T06:22:23.654Z,16.00
2023-05-11T06:24:50.897Z,16.30
2023-05-11T06:27:36.719Z,16.30
2023-05-11T06:30:04.086Z,16.30
2023-05-11T06:32:35.436Z,16.30
2023-05-11T06:35:02.788Z,16.40
2023-05-11T06:37:32.652Z,16.60
2023-05-11T06:40:00.055Z,16.80
2023-05-11T06:42:27.798Z,17.20
2023-05-11T06:44:54.930Z,17.30
2023-05-11T06:47:41.073Z,17.70
2023-05-11T06:50:08.834Z,17.80
2023-05-11T06:52:36.539Z,17.90
2023-05-11T06:55:04.700Z,18.00
2023-05-11T06:57:34.568Z,17.70
2023-05-11T07:00:01.685Z,17.60
2023-05-11T07:02:53.807Z,17.60
2023-05-11T07:05:21.877Z,17.70
2023-05-11T07:07:48.917Z,18.00
2023-05-11T07:10:16.366Z,17.60
2023-05-11T07:13:02.599Z,17.30
2023-05-11T07:15:29.708Z,17.80
2023-05-11T07:17:56.888Z,18.20
2023-05-11T07:20:24.003Z,18.40
2023-05-11T07:23:10.147Z,19.20
2023-05-11T07:25:37.650Z,18.90
2023-05-11T07:28:05.826Z,18.70
2023-05-11T07:30:32.934Z,18.60
2023-05-11T07:33:00.158Z,19.80
2023-05-11T07:35:27.513Z,21.30
2023-05-11T07:37:54.623Z,20.50
2023-05-11T07:40:22.069Z,20.30
2023-05-11T07:42:49.317Z,20.20
2023-05-11T07:45:16.393Z,20.20
2023-05-11T07:48:02.507Z,20.30
2023-05-11T07:50:29.677Z,20.40
2023-05-11T07:52:56.869Z,21.10
2023-05-11T07:55:42.790Z,20.80
2023-05-11T07:58:09.956Z,21.00
2023-05-11T08:00:37.704Z,21.00
2023-05-11T08:03:04.989Z,21.60
2023-05-11T08:05:51.273Z,21.50
2023-05-11T08:08:19.396Z,21.70
2023-05-11T08:10:46.577Z,19.20
2023-05-11T08:13:13.670Z,19.30
2023-05-11T08:15:59.677Z,19.10
2023-05-11T08:18:27.303Z,19.50
2023-05-11T08:20:54.438Z,19.70
2023-05-11T08:23:40.287Z,19.70
2023-05-11T08:26:07.813Z,20.30
2023-05-11T08:28:35.050Z,19.20
2023-05-11T08:31:02.236Z,19.20
2023-05-11T08:35:59.769Z,19.50
2023-05-11T08:38:26.906Z,19.90
2023-05-11T08:40:54.615Z,18.50
2023-05-11T08:43:23.691Z,18.60
2023-05-11T08:45:57.078Z,18.50
2023-05-11T08:48:24.524Z,18.00
2023-05-11T08:50:52.117Z,17.60
2023-05-11T08:53:19.299Z,17.60
2023-05-11T08:55:47.993Z,17.80
2023-05-11T08:58:19.608Z,17.90
2023-05-11T09:00:49.442Z,17.90
2023-05-11T09:03:18.960Z,17.80
2023-05-11T09:05:47.363Z,17.70
2023-05-11T09:08:15.901Z,18.00
2023-05-11T09:10:44.369Z,18.40
2023-05-11T09:13:12.411Z,19.40
2023-05-11T09:15:39.739Z,21.20
2023-05-11T09:18:07.155Z,21.30
2023-05-11T09:20:34.782Z,20.70
2023-05-11T09:23:02.223Z,20.80
2023-05-11T09:25:33.322Z,21.40
2023-05-11T09:28:00.817Z,20.40
2023-05-11T09:30:28.461Z,20.10
2023-05-11T09:32:57.619Z,22.00
2023-05-11T09:35:30.193Z,22.60
2023-05-11T09:38:09.319Z,21.70
2023-05-11T09:40:43.537Z,22.80
2023-05-11T09:43:22.606Z,22.90
2023-05-11T09:45:52.012Z,21.70
2023-05-11T09:48:22.142Z,21.40
2023-05-11T09:50:50.602Z,20.60
2023-05-11T09:53:18.670Z,20.90
2023-05-11T09:55:56.033Z,24.10
2023-05-11T09:58:23.391Z,24.30
2023-05-11T10:00:54.011Z,23.80
2023-05-11T10:03:21.571Z,25.70
2023-05-11T10:06:00.516Z,25.50
2023-05-11T10:08:35.855Z,26.40
2023-05-11T10:11:03.964Z,27.60
2023-05-11T10:13:32.928Z,25.90
2023-05-11T10:16:04.534Z,25.80
2023-05-11T10:18:36.661Z,23.10
2023-05-11T10:21:04.646Z,22.60
2023-05-11T10:23:33.877Z,22.60
2023-05-11T10:26:02.073Z,21.10
2023-05-11T10:28:30.986Z,21.30
2023-05-11T10:30:59.419Z,19.20
2023-05-11T10:33:27.038Z,17.80
2023-05-11T10:35:55.143Z,16.90
2023-05-11T10:38:24.564Z,16.80
2023-05-11T10:40:53.235Z,17.10
2023-05-11T10:43:29.229Z,17.40
2023-05-11T10:45:56.761Z,17.00
2023-05-11T10:48:48.538Z,16.90
2023-05-11T10:51:57.118Z,16.80
2023-05-11T10:54:39.793Z,17.00
2023-05-11T10:57:25.023Z,16.70
2023-05-11T11:00:55.124Z,16.80
2023-05-11T11:03:23.020Z,16.20
2023-05-11T11:05:50.338Z,15.90
2023-05-11T11:08:17.539Z,15.70
2023-05-11T11:10:49.489Z,16.10
2023-05-11T11:13:20.040Z,16.70
2023-05-11T11:15:56.239Z,16.90
2023-05-11T11:18:24.480Z,16.90
2023-05-11T11:20:53.556Z,16.60
2023-05-11T11:23:42.699Z,18.70
2023-05-11T11:26:16.639Z,19.90
2023-05-11T11:28:58.442Z,20.10
2023-05-11T11:31:32.025Z,20.70
2023-05-11T11:34:20.113Z,20.40
2023-05-11T11:36:56.322Z,19.60
2023-05-11T11:39:27.198Z,20.30
2023-05-11T11:42:05.188Z,19.60
2023-05-11T11:44:34.320Z,19.80
2023-05-11T11:47:23.361Z,18.30
2023-05-11T11:49:56.308Z,18.10
2023-05-11T11:52:29.194Z,17.70
2023-05-11T11:54:59.799Z,17.30
2023-05-11T11:57:30.286Z,17.40
2023-05-11T11:59:57.833Z,17.10
2023-05-11T12:02:26.170Z,16.70
2023-05-11T12:04:59.677Z,16.60
2023-05-11T12:07:27.640Z,16.70
2023-05-11T12:09:55.673Z,17.10
2023-05-11T12:12:22.902Z,16.80
2023-05-11T12:14:50.172Z,17.00
2023-05-11T12:17:30.049Z,17.10
2023-05-11T12:20:15.117Z,17.20
2023-05-11T12:22:42.708Z,17.30
2023-05-11T12:25:11.550Z,17.00
2023-05-11T12:27:48.782Z,18.70
2023-05-11T12:30:30.181Z,21.40
2023-05-11T12:32:59.496Z,21.80
2023-05-11T12:35:32.194Z,22.80
2023-05-11T12:38:02.164Z,21.00
2023-05-11T12:40:30.387Z,20.60
2023-05-11T12:43:00.198Z,21.70
2023-05-11T12:45:29.284Z,22.80
2023-05-11T12:47:58.661Z,22.20
2023-05-11T12:50:26.055Z,23.50
2023-05-11T12:52:53.297Z,25.20
2023-05-11T12:55:28.863Z,24.50
2023-05-11T12:58:14.609Z,24.50
2023-05-11T13:00:55.826Z,24.90
2023-05-11T13:03:28.093Z,21.80
2023-05-11T13:06:09.129Z,22.90
2023-05-11T13:08:44.147Z,24.90
2023-05-11T13:11:25.662Z,24.50
2023-05-11T13:13:55.151Z,24.80
2023-05-11T13:16:33.314Z,24.20
2023-05-11T13:19:02.493Z,23.80
2023-05-11T13:21:30.624Z,23.60
2023-05-11T13:23:57.966Z,21.80
2023-05-11T13:26:30.653Z,20.90
2023-05-11T13:29:09.650Z,22.70
2023-05-11T13:31:52.536Z,23.80
2023-05-11T13:34:20.615Z,21.40
2023-05-11T13:36:48.271Z,20.70
2023-05-11T13:39:15.428Z,19.60
2023-05-11T13:41:42.776Z,20.10
2023-05-11T13:44:09.975Z,22.50
2023-05-11T13:46:37.226Z,23.90
2023-05-11T13:49:04.830Z,25.40
2023-05-11T13:51:32.635Z,25.00
2023-05-11T13:54:01.063Z,24.00
2023-05-11T13:56:28.440Z,25.20
2023-05-11T13:58:57.251Z,25.40
2023-05-11T14:01:26.609Z,25.30
2023-05-11T14:03:55.008Z,25.70
2023-05-11T14:06:23.931Z,25.60
2023-05-11T14:08:51.701Z,25.20
2023-05-11T14:11:18.948Z,25.10
2023-05-11T14:13:46.086Z,25.00
2023-05-11T14:16:13.396Z,23.70
2023-05-11T14:18:41.379Z,23.70
2023-05-11T14:21:08.621Z,23.20
2023-05-11T14:23:38.368Z,24.10
2023-05-11T14:26:07.828Z,24.30
2023-05-11T14:28:35.158Z,21.80
2023-05-11T14:31:02.369Z,20.80
2023-05-11T14:33:29.628Z,20.10
2023-05-11T14:35:56.711Z,20.10
2023-05-11T14:38:23.890Z,20.00
2023-05-11T14:40:52.537Z,19.70
2023-05-11T14:43:20.049Z,19.20
2023-05-11T14:45:47.260Z,19.50
2023-05-11T14:48:14.703Z,19.70
2023-05-11T14:50:43.123Z,19.80
2023-05-11T14:53:10.604Z,19.70
2023-05-11T14:55:38.378Z,19.80
2023-05-11T14:58:09.193Z,19.40
2023-05-11T15:00:43.932Z,19.10
2023-05-11T15:03:11.162Z,18.70
2023-05-11T15:05:39.285Z,18.20
2023-05-11T15:08:18.406Z,18.30
2023-05-11T15:10:53.267Z,18.60
2023-05-11T15:13:22.324Z,18.30
2023-05-11T15:15:49.835Z,17.90
2023-05-11T15:18:17.019Z,18.30
2023-05-11T15:20:44.862Z,18.20
2023-05-11T15:23:16.870Z,18.10
2023-05-11T15:25:45.133Z,17.70
2023-05-11T15:28:12.903Z,17.80
2023-05-11T15:30:41.616Z,17.70
2023-05-11T15:33:10.061Z,17.60
2023-05-11T15:35:38.427Z,17.40
2023-05-11T15:38:06.350Z,17.60
2023-05-11T15:40:33.835Z,17.80
2023-05-11T15:43:04.111Z,17.60
2023-05-11T15:45:31.233Z,17.40
2023-05-11T15:47:58.757Z,17.40
2023-05-11T15:50:26.028Z,17.60
2023-05-11T15:52:53.097Z,17.40
2023-05-11T15:55:20.235Z,17.60
2023-05-11T15:57:47.620Z,18.00
2023-05-11T16:00:16.097Z,17.60
2023-05-11T16:02:45.813Z,17.70
2023-05-11T16:05:13.102Z,17.30
2023-05-11T16:07:40.363Z,17.30
2023-05-11T16:10:08.010Z,17.00
2023-05-11T16:12:35.093Z,17.00
2023-05-11T16:15:02.352Z,17.00
2023-05-11T16:17:32.568Z,16.90
2023-05-11T16:20:00.507Z,16.70
2023-05-11T16:22:28.181Z,16.60
2023-05-11T16:24:55.695Z,16.60
2023-05-11T16:27:22.757Z,16.60
2023-05-11T16:29:49.898Z,16.50
2023-05-11T16:32:16.953Z,16.60
2023-05-11T16:34:44.218Z,16.50
2023-05-11T16:37:11.302Z,16.30
2023-05-11T16:39:38.555Z,16.30
2023-05-11T16:42:05.779Z,16.30
2023-05-11T16:44:33.053Z,16.50
2023-05-11T16:47:00.595Z,16.40
2023-05-11T16:49:28.152Z,16.40
2023-05-11T16:51:55.492Z,16.10
2023-05-11T16:54:22.665Z,16.10
2023-05-11T16:56:49.740Z,16.10
2023-05-11T16:59:16.938Z,16.00
2023-05-11T17:01:45.875Z,15.90
2023-05-11T17:04:13.523Z,15.80
2023-05-11T17:06:41.175Z,15.80
2023-05-11T17:09:10.841Z,15.80
2023-05-11T17:11:38.054Z,15.80
2023-05-11T17:14:05.204Z,15.70
2023-05-11T17:16:32.679Z,15.70
2023-05-11T17:18:59.838Z,15.60
2023-05-11T17:21:27.235Z,15.60
2023-05-11T17:23:54.576Z,15.50
2023-05-11T17:26:24.999Z,15.50
2023-05-11T17:28:54.540Z,15.40
2023-05-11T17:31:21.811Z,15.30
2023-05-11T17:33:49.166Z,15.40
2023-05-11T17:36:16.575Z,15.30
2023-05-11T17:38:43.807Z,15.40
2023-05-11T17:41:10.993Z,15.40
2023-05-11T17:43:38.363Z,15.40
2023-05-11T17:46:06.332Z,15.30
2023-05-11T17:48:33.586Z,15.20
2023-05-11T17:51:00.884Z,15.20
2023-05-11T17:53:28.158Z,15.20
2023-05-11T17:55:59.170Z,15.20
2023-05-11T17:58:27.049Z,15.10
2023-05-11T18:00:54.231Z,15.00
2023-05-11T18:03:21.648Z,15.00
2023-05-11T18:05:49.325Z,14.80
2023-05-11T18:08:16.947Z,14.60
2023-05-11T18:10:44.491Z,14.60
2023-05-11T18:13:11.688Z,14.50
2023-05-11T18:15:38.852Z,14.50
2023-05-11T18:18:06.141Z,14.50
2023-05-11T18:20:33.507Z,14.40
2023-05-11T18:23:00.732Z,14.50
2023-05-11T18:25:31.856Z,14.40
2023-05-11T18:28:02.552Z,14.20
2023-05-11T18:30:30.392Z,14.20
2023-05-11T18:32:58.268Z,14.20
2023-05-11T18:35:25.564Z,14.00
2023-05-11T18:37:52.715Z,14.00
2023-05-11T18:40:20.159Z,13.90
2023-05-11T18:42:47.620Z,14.00
2023-05-11T18:45:17.471Z,13.80
2023-05-11T18:47:46.375Z,13.90
2023-05-11T18:50:14.125Z,13.80
2023-05-11T18:52:41.458Z,13.90
2023-05-11T18:55:10.204Z,13.80
2023-05-11T18:57:39.518Z,13.80
2023-05-11T19:00:07.471Z,13.70
2023-05-11T19:02:35.169Z,13.80
2023-05-11T19:05:04.296Z,13.70
2023-05-11T19:07:32.030Z,13.60
2023-05-11T19:10:18.228Z,13.60
2023-05-11T19:12:46.674Z,13.60
2023-05-11T19:15:13.907Z,13.50
2023-05-11T19:17:59.780Z,13.60
2023-05-11T19:20:27.275Z,13.50
2023-05-11T19:22:54.384Z,13.40
2023-05-11T19:25:21.523Z,13.40
2023-05-11T19:27:48.589Z,13.40
2023-05-11T19:30:15.775Z,13.30
2023-05-11T19:32:44.381Z,13.30
2023-05-11T19:35:12.902Z,13.40
2023-05-11T19:37:40.124Z,13.30
2023-05-11T19:40:43.080Z,13.30
2023-05-11T19:42:55.189Z,13.30
2023-05-11T19:45:22.537Z,13.30
2023-05-11T19:47:49.675Z,13.30
2023-05-11T19:50:20.447Z,13.40
2023-05-11T19:52:49.033Z,13.40
2023-05-11T19:55:16.323Z,13.30
2023-05-11T19:57:43.520Z,13.30
2023-05-11T20:00:11.888Z,13.30
2023-05-11T20:02:39.629Z,13.10
2023-05-11T20:05:07.678Z,13.10
2023-05-11T20:07:34.887Z,13.10
2023-05-11T20:10:02.500Z,13.30
2023-05-11T20:12:31.613Z,13.40
2023-05-11T20:14:58.816Z,13.30
2023-05-11T20:17:26.130Z,13.30
2023-05-11T20:19:53.188Z,13.20
2023-05-11T20:22:39.014Z,13.10
2023-05-11T20:25:11.647Z,13.10
2023-05-11T20:27:44.230Z,13.10
2023-05-11T20:30:11.830Z,13.20
2023-05-11T20:32:39.098Z,13.20
2023-05-11T20:35:06.719Z,13.20
2023-05-11T20:37:34.046Z,13.00
2023-05-11T20:40:01.375Z,13.10
2023-05-11T20:42:31.666Z,13.10
2023-05-11T20:45:05.331Z,13.20
2023-05-11T20:47:34.641Z,13.20
2023-05-11T20:50:21.731Z,13.20
2023-05-11T20:52:48.986Z,13.30
2023-05-11T20:55:17.727Z,13.30
2023-05-11T20:57:45.241Z,13.20
2023-05-11T21:00:16.070Z,13.10
2023-05-11T21:02:44.747Z,13.10
2023-05-11T21:05:11.972Z,13.10
2023-05-11T21:07:39.074Z,13.10
2023-05-11T21:10:07.201Z,13.20
2023-05-11T21:12:34.741Z,13.20
2023-05-11T21:15:01.925Z,13.10
2023-05-11T21:17:29.892Z,13.10
2023-05-11T21:19:56.970Z,13.00
2023-05-11T21:22:24.270Z,13.00
2023-05-11T21:24:51.501Z,13.00
2023-05-11T21:27:19.044Z,12.90
2023-05-11T21:29:46.202Z,12.90
2023-05-11T21:32:13.299Z,12.90
2023-05-11T21:34:40.620Z,12.80
2023-05-11T21:37:07.674Z,12.70
2023-05-11T21:39:34.801Z,12.60
2023-05-11T21:42:03.270Z,12.60
2023-05-11T21:44:30.437Z,12.50
2023-05-11T21:46:57.815Z,12.50
2023-05-11T21:49:25.238Z,12.50
2023-05-11T21:51:52.952Z,12.40
2023-05-11T21:54:23.089Z,12.40
2023-05-11T21:56:52.114Z,12.50
2023-05-11T21:59:20.092Z,12.40
2023-05-11T22:01:49.778Z,12.30
2023-05-11T22:04:17.013Z,12.40
2023-05-11T22:06:44.171Z,12.30
2023-05-11T22:09:11.833Z,12.30
2023-05-11T22:11:39.641Z,12.20
2023-05-11T22:14:06.860Z,12.30
2023-05-11T22:16:34.101Z,12.20
2023-05-11T22:19:01.544Z,12.20
2023-05-11T22:21:28.910Z,12.20
2023-05-11T22:23:56.119Z,12.30
2023-05-11T22:26:23.263Z,12.20
2023-05-11T22:28:50.356Z,12.10
2023-05-11T22:31:17.456Z,12.10
2023-05-11T22:33:44.628Z,12.10
2023-05-11T22:36:12.255Z,12.10
2023-05-11T22:38:39.342Z,12.20
2023-05-11T22:41:06.692Z,12.30
2023-05-11T22:43:34.726Z,12.30
2023-05-11T22:46:03.561Z,12.30
2023-05-11T22:48:30.814Z,12.30
2023-05-11T22:50:58.016Z,12.20
2023-05-11T22:53:26.159Z,12.20
2023-05-11T22:55:53.708Z,12.20
2023-05-11T22:58:20.833Z,12.20
2023-05-11T23:00:48.064Z,12.30
2023-05-11T23:03:15.281Z,12.20
2023-05-11T23:05:42.438Z,12.20
2023-05-11T23:08:09.549Z,12.10
2023-05-11T23:10:36.599Z,12.10
2023-05-11T23:13:04.945Z,12.10
2023-05-11T23:15:32.350Z,12.10
2023-05-11T23:17:59.527Z,12.10
2023-05-11T23:20:26.956Z,12.10
2023-05-11T23:22:54.055Z,12.10
2023-05-11T23:25:21.325Z,12.10
2023-05-11T23:27:48.615Z,12.20
2023-05-11T23:30:15.812Z,12.20
2023-05-11T23:32:42.866Z,12.20
2023-05-11T23:35:11.270Z,12.10
2023-05-11T23:37:38.364Z,11.90
2023-05-11T23:40:06.559Z,11.70
2023-05-11T23:42:33.653Z,11.80
2023-05-11T23:45:04.913Z,11.70
2023-05-11T23:47:34.055Z,11.70
2023-05-11T23:50:01.519Z,11.80
2023-05-11T23:52:31.325Z,11.90
2023-05-11T23:54:58.390Z,11.90
2023-05-11T23:57:25.736Z,11.80
2023-05-11T23:59:52.873Z,11.80
